createdAt,value
2018-03-06T00:00:49.848Z,0.00
2018-03-06T00:01:49.901Z,0.00
2018-03-06T00:02:49.955Z,0.00
2018-03-06T00:03:50.008Z,0.00
2018-03-06T00:04:50.061Z,0.00
2018-03-06T00:05:50.161Z,0.00
2018-03-06T00:06:50.169Z,0.00
2018-03-06T00:07:50.221Z,0.00
2018-03-06T00:08:50.526Z,0.00
2018-03-06T00:09:50.329Z,0.00
2018-03-06T00:10:50.382Z,0.00
2018-03-06T00:11:50.437Z,0.00
2018-03-06T00:12:50.487Z,0.00
2018-03-06T00:13:50.541Z,0.00
2018-03-06T00:14:50.594Z,0.00
2018-03-06T00:15:50.645Z,0.00
2018-03-06T00:16:50.703Z,0.00
2018-03-06T00:17:50.754Z,0.00
2018-03-06T00:18:50.807Z,0.00
2018-03-06T00:19:50.862Z,0.00
2018-03-06T00:20:50.913Z,0.00
2018-03-06T00:21:50.966Z,0.00
2018-03-06T00:22:51.021Z,0.00
2018-03-06T00:23:51.076Z,0.00
2018-03-06T00:24:51.125Z,0.00
2018-03-06T00:25:51.179Z,0.00
2018-03-06T00:26:51.232Z,0.00
2018-03-06T00:27:51.288Z,0.00
2018-03-06T00:28:51.337Z,0.00
2018-03-06T00:29:51.395Z,0.00
2018-03-06T00:30:51.444Z,0.00
2018-03-06T00:31:51.497Z,0.00
2018-03-06T00:32:51.550Z,0.00
2018-03-06T00:33:51.603Z,0.00
2018-03-06T00:34:51.657Z,0.00
2018-03-06T00:35:51.709Z,0.00
2018-03-06T00:36:51.762Z,0.00
2018-03-06T00:37:51.816Z,0.00
2018-03-06T00:38:51.871Z,0.00
2018-03-06T00:39:51.920Z,0.00
2018-03-06T00:40:51.975Z,0.00
2018-03-06T00:41:52.028Z,0.00
2018-03-06T00:42:52.080Z,0.00
2018-03-06T00:43:52.131Z,0.00
2018-03-06T00:44:52.195Z,0.00
2018-03-06T00:45:52.240Z,0.00
2018-03-06T00:46:52.293Z,0.00
2018-03-06T00:47:52.347Z,0.00
2018-03-06T00:48:52.397Z,0.00
2018-03-06T00:49:52.450Z,0.00
2018-03-06T00:50:52.504Z,0.00
2018-03-06T00:51:52.563Z,0.00
2018-03-06T00:52:52.608Z,0.00
2018-03-06T00:53:52.662Z,0.00
2018-03-06T00:54:52.715Z,0.00
2018-03-06T00:55:52.767Z,0.00
2018-03-06T00:56:52.821Z,0.00
2018-03-06T00:57:52.874Z,0.00
2018-03-06T00:58:52.929Z,0.00
2018-03-06T00:59:52.979Z,0.00
2018-03-06T01:00:53.033Z,0.00
2018-03-06T01:01:53.088Z,0.00
2018-03-06T01:02:53.139Z,0.00
2018-03-06T01:03:53.190Z,0.00
2018-03-06T01:04:53.243Z,0.00
2018-03-06T01:05:53.297Z,0.00
2018-03-06T01:06:53.351Z,0.00
2018-03-06T01:07:53.402Z,0.00
2018-03-06T01:08:53.455Z,0.00
2018-03-06T01:09:53.507Z,0.00
2018-03-06T01:10:53.561Z,0.00
2018-03-06T01:11:53.613Z,0.00
2018-03-06T01:12:53.667Z,0.00
2018-03-06T01:13:53.719Z,0.00
2018-03-06T01:14:53.773Z,0.00
2018-03-06T01:15:53.825Z,0.00
2018-03-06T01:16:53.878Z,0.00
2018-03-06T01:17:53.930Z,0.00
2018-03-06T01:18:53.985Z,0.00
2018-03-06T01:19:54.038Z,0.00
2018-03-06T01:20:54.090Z,0.00
2018-03-06T01:21:54.142Z,0.00
2018-03-06T01:22:54.198Z,0.00
2018-03-06T01:23:54.247Z,0.00
2018-03-06T01:24:54.300Z,0.00
2018-03-06T01:25:54.352Z,0.00
2018-03-06T01:26:54.406Z,0.00
2018-03-06T01:27:54.458Z,0.00
2018-03-06T01:28:54.511Z,0.00
2018-03-06T01:29:54.584Z,0.00
2018-03-06T01:30:54.616Z,0.00
2018-03-06T01:31:54.668Z,0.00
2018-03-06T01:32:54.722Z,0.00
2018-03-06T01:33:54.774Z,0.00
2018-03-06T01:34:54.828Z,0.00
2018-03-06T01:35:54.879Z,0.00
2018-03-06T01:36:54.934Z,0.00
2018-03-06T01:37:54.984Z,0.00
2018-03-06T01:38:55.038Z,0.00
2018-03-06T01:39:55.090Z,0.00
2018-03-06T01:40:55.142Z,0.00
2018-03-06T01:41:55.196Z,0.00
2018-03-06T01:42:55.249Z,0.00
2018-03-06T01:43:55.300Z,0.00
2018-03-06T01:44:55.353Z,0.00
2018-03-06T01:45:55.407Z,0.00
2018-03-06T01:46:55.460Z,0.00
2018-03-06T01:47:55.512Z,0.00
2018-03-06T01:48:55.564Z,0.00
2018-03-06T01:49:55.768Z,0.00
2018-03-06T01:50:55.673Z,0.00
2018-03-06T01:51:55.722Z,0.00
2018-03-06T01:52:55.775Z,0.00
2018-03-06T01:53:55.828Z,0.00
2018-03-06T01:54:55.882Z,0.00
2018-03-06T01:55:55.932Z,0.00
2018-03-06T01:56:55.985Z,0.00
2018-03-06T01:57:56.472Z,0.00
2018-03-06T01:58:56.496Z,0.00
2018-03-06T01:59:56.718Z,0.00
2018-03-06T02:00:56.738Z,0.00
2018-03-06T02:01:56.752Z,0.00
2018-03-06T02:02:56.302Z,0.00
2018-03-06T02:03:56.355Z,0.00
2018-03-06T02:04:56.406Z,0.00
2018-03-06T02:05:56.470Z,0.00
2018-03-06T02:06:56.512Z,0.00
2018-03-06T02:07:56.565Z,0.00
2018-03-06T02:08:56.618Z,0.00
2018-03-06T02:09:56.671Z,0.00
2018-03-06T02:10:56.723Z,0.00
2018-03-06T02:11:56.774Z,0.00
2018-03-06T02:12:56.830Z,0.00
2018-03-06T02:13:56.880Z,0.00
2018-03-06T02:14:56.932Z,0.00
2018-03-06T02:15:57.512Z,0.00
2018-03-06T02:16:57.428Z,0.00
2018-03-06T02:17:57.091Z,0.00
2018-03-06T02:18:57.142Z,0.00
2018-03-06T02:19:57.196Z,0.00
2018-03-06T02:20:57.248Z,0.00
2018-03-06T02:21:57.301Z,0.00
2018-03-06T02:22:57.357Z,0.00
2018-03-06T02:23:57.413Z,0.00
2018-03-06T02:24:57.468Z,0.00
2018-03-06T02:25:57.512Z,0.00
2018-03-06T02:26:57.564Z,0.00
2018-03-06T02:27:57.615Z,0.00
2018-03-06T02:28:57.669Z,0.00
2018-03-06T02:29:57.734Z,0.00
2018-03-06T02:30:57.774Z,0.00
2018-03-06T02:31:57.824Z,0.00
2018-03-06T02:32:57.877Z,0.00
2018-03-06T02:33:57.929Z,0.00
2018-03-06T02:34:57.986Z,0.00
2018-03-06T02:35:58.033Z,0.00
2018-03-06T02:36:58.087Z,0.00
2018-03-06T02:37:58.141Z,0.00
2018-03-06T02:38:58.193Z,0.00
2018-03-06T02:39:58.244Z,0.00
2018-03-06T02:40:58.296Z,0.00
2018-03-06T02:41:58.349Z,0.00
2018-03-06T02:42:58.401Z,0.00
2018-03-06T02:43:58.455Z,0.00
2018-03-06T02:44:58.506Z,0.00
2018-03-06T02:45:58.561Z,0.00
2018-03-06T02:46:58.612Z,0.00
2018-03-06T02:47:58.663Z,0.00
2018-03-06T02:48:58.716Z,0.00
2018-03-06T02:49:58.767Z,0.00
2018-03-06T02:50:58.820Z,0.00
2018-03-06T02:51:58.871Z,0.00
2018-03-06T02:52:58.950Z,0.00
2018-03-06T02:53:58.978Z,0.00
2018-03-06T02:54:59.029Z,0.00
2018-03-06T02:55:59.382Z,0.00
2018-03-06T02:56:59.135Z,0.00
2018-03-06T02:57:59.186Z,0.00
2018-03-06T02:58:59.254Z,0.00
2018-03-06T02:59:59.291Z,0.00
2018-03-06T03:00:59.343Z,0.00
2018-03-06T03:01:59.396Z,0.00
2018-03-06T03:02:59.449Z,0.00
2018-03-06T03:03:59.500Z,0.00
2018-03-06T03:04:59.553Z,0.00
2018-03-06T03:05:59.606Z,0.00
2018-03-06T03:06:59.657Z,0.00
2018-03-06T03:07:59.709Z,0.00
2018-03-06T03:08:59.762Z,0.00
2018-03-06T03:10:00.168Z,0.00
2018-03-06T03:10:59.866Z,0.00
2018-03-06T03:11:59.920Z,0.00
2018-03-06T03:12:59.970Z,0.00
2018-03-06T03:14:00.024Z,0.00
2018-03-06T03:15:00.078Z,0.00
2018-03-06T03:16:00.128Z,0.00
2018-03-06T03:17:00.181Z,0.00
2018-03-06T03:18:00.232Z,0.00
2018-03-06T03:19:00.287Z,0.00
2018-03-06T03:20:00.590Z,0.00
2018-03-06T03:21:00.392Z,0.00
2018-03-06T03:22:00.440Z,0.00
2018-03-06T03:23:00.517Z,0.00
2018-03-06T03:24:00.548Z,0.00
2018-03-06T03:25:00.598Z,0.00
2018-03-06T03:26:00.649Z,0.00
2018-03-06T03:27:00.703Z,0.00
2018-03-06T03:28:00.756Z,0.00
2018-03-06T03:29:00.806Z,0.00
2018-03-06T03:30:01.262Z,0.00
2018-03-06T03:31:00.912Z,0.00
2018-03-06T03:32:00.962Z,0.00
2018-03-06T03:33:01.017Z,0.00
2018-03-06T03:34:01.068Z,0.00
2018-03-06T03:35:01.121Z,0.00
2018-03-06T03:36:01.174Z,0.00
2018-03-06T03:37:01.225Z,0.00
2018-03-06T03:38:01.278Z,0.00
2018-03-06T03:39:01.330Z,0.00
2018-03-06T03:40:01.380Z,0.00
2018-03-06T03:41:01.433Z,0.00
2018-03-06T03:42:01.486Z,0.00
2018-03-06T03:43:01.539Z,0.00
2018-03-06T03:44:01.591Z,0.00
2018-03-06T03:45:01.644Z,0.00
2018-03-06T03:46:01.695Z,0.00
2018-03-06T03:47:01.772Z,0.00
2018-03-06T03:48:01.800Z,0.00
2018-03-06T03:49:01.851Z,0.00
2018-03-06T03:50:01.915Z,0.00
2018-03-06T03:51:01.957Z,0.00
2018-03-06T03:52:02.007Z,0.00
2018-03-06T03:53:02.062Z,0.00
2018-03-06T03:54:02.113Z,0.00
2018-03-06T03:55:02.174Z,0.00
2018-03-06T03:56:02.219Z,0.00
2018-03-06T03:57:02.270Z,0.00
2018-03-06T03:58:02.323Z,0.00
2018-03-06T03:59:02.376Z,0.00
2018-03-06T04:00:02.427Z,0.00
2018-03-06T04:01:02.480Z,0.00
2018-03-06T04:02:02.532Z,0.00
2018-03-06T04:03:02.585Z,0.00
2018-03-06T04:04:02.640Z,0.00
2018-03-06T04:05:02.689Z,0.00
2018-03-06T04:06:02.741Z,0.00
2018-03-06T04:07:02.797Z,0.00
2018-03-06T04:08:02.846Z,0.00
2018-03-06T04:09:02.899Z,0.00
2018-03-06T04:10:02.952Z,0.00
2018-03-06T04:11:03.006Z,0.00
2018-03-06T04:12:03.058Z,0.00
2018-03-06T04:13:03.110Z,0.00
2018-03-06T04:14:03.164Z,0.00
2018-03-06T04:15:03.215Z,0.00
2018-03-06T04:16:03.268Z,0.00
2018-03-06T04:17:03.320Z,0.00
2018-03-06T04:18:03.374Z,0.00
2018-03-06T04:19:03.427Z,0.00
2018-03-06T04:20:03.479Z,0.00
2018-03-06T04:21:03.531Z,0.00
2018-03-06T04:22:03.586Z,0.00
2018-03-06T04:23:03.639Z,0.00
2018-03-06T04:24:03.690Z,0.00
2018-03-06T04:25:03.742Z,0.00
2018-03-06T04:26:03.796Z,0.00
2018-03-06T04:27:03.848Z,0.00
2018-03-06T04:28:03.906Z,0.00
2018-03-06T04:29:03.955Z,0.00
2018-03-06T04:30:04.008Z,0.00
2018-03-06T04:31:04.060Z,0.00
2018-03-06T04:32:04.112Z,0.00
2018-03-06T04:33:04.166Z,0.00
2018-03-06T04:34:04.218Z,0.00
2018-03-06T04:35:04.270Z,0.00
2018-03-06T04:36:04.324Z,0.00
2018-03-06T04:37:04.377Z,0.00
2018-03-06T04:38:04.431Z,0.00
2018-03-06T04:39:04.482Z,0.00
2018-03-06T04:40:04.538Z,0.00
2018-03-06T04:41:04.586Z,0.00
2018-03-06T04:42:04.638Z,0.00
2018-03-06T04:43:04.690Z,0.00
2018-03-06T04:44:04.742Z,0.00
2018-03-06T04:45:04.799Z,0.00
2018-03-06T04:46:04.849Z,0.00
2018-03-06T04:47:04.901Z,0.00
2018-03-06T04:48:04.952Z,0.00
2018-03-06T04:49:05.005Z,0.00
2018-03-06T04:50:05.058Z,0.00
2018-03-06T04:51:05.110Z,0.00
2018-03-06T04:52:05.160Z,0.00
2018-03-06T04:53:05.214Z,0.00
2018-03-06T04:54:05.266Z,0.00
2018-03-06T04:55:05.319Z,0.00
2018-03-06T04:56:05.370Z,0.00
2018-03-06T04:57:05.423Z,0.00
2018-03-06T04:58:05.484Z,0.00
2018-03-06T04:59:05.526Z,0.00
2018-03-06T05:00:05.578Z,0.00
2018-03-06T05:01:05.648Z,0.00
2018-03-06T05:02:05.683Z,0.00
2018-03-06T05:03:05.735Z,0.00
2018-03-06T05:04:05.788Z,0.00
2018-03-06T05:05:05.843Z,0.00
2018-03-06T05:06:05.893Z,0.00
2018-03-06T05:07:05.946Z,0.00
2018-03-06T05:08:05.996Z,0.00
2018-03-06T05:09:06.048Z,0.00
2018-03-06T05:10:06.102Z,0.00
2018-03-06T05:11:06.170Z,0.00
2018-03-06T05:12:06.204Z,0.00
2018-03-06T05:13:06.258Z,0.00
2018-03-06T05:14:06.311Z,0.00
2018-03-06T05:15:06.363Z,0.00
2018-03-06T05:16:06.415Z,0.00
2018-03-06T05:17:06.467Z,0.00
2018-03-06T05:18:06.520Z,0.00
2018-03-06T05:19:06.577Z,0.00
2018-03-06T05:20:07.213Z,0.00
2018-03-06T05:21:06.676Z,0.00
2018-03-06T05:22:06.729Z,0.00
2018-03-06T05:23:06.791Z,0.00
2018-03-06T05:24:06.832Z,0.00
2018-03-06T05:25:06.901Z,0.00
2018-03-06T05:26:06.939Z,0.00
2018-03-06T05:27:06.992Z,0.00
2018-03-06T05:28:07.048Z,0.00
2018-03-06T05:29:07.094Z,0.00
2018-03-06T05:30:07.147Z,0.00
2018-03-06T05:31:07.200Z,0.00
2018-03-06T05:32:07.252Z,0.00
2018-03-06T05:33:07.308Z,0.00
2018-03-06T05:34:07.358Z,0.00
2018-03-06T05:35:07.409Z,0.00
2018-03-06T05:36:07.462Z,4.00
2018-03-06T05:37:07.513Z,4.00
2018-03-06T05:38:07.565Z,4.00
2018-03-06T05:39:07.620Z,4.00
2018-03-06T05:40:07.675Z,4.00
2018-03-06T05:41:07.722Z,8.00
2018-03-06T05:42:07.775Z,4.00
2018-03-06T05:43:07.832Z,8.00
2018-03-06T05:44:07.879Z,8.00
2018-03-06T05:45:07.933Z,8.00
2018-03-06T05:46:07.984Z,12.00
2018-03-06T05:47:08.036Z,12.00
2018-03-06T05:48:08.088Z,16.00
2018-03-06T05:49:08.141Z,24.00
2018-03-06T05:50:08.218Z,24.00
2018-03-06T05:51:08.245Z,28.00
2018-03-06T05:52:08.296Z,36.00
2018-03-06T05:53:08.348Z,40.00
2018-03-06T05:54:08.402Z,48.00
2018-03-06T05:55:09.164Z,56.00
2018-03-06T05:56:08.506Z,64.00
2018-03-06T05:57:08.558Z,76.00
2018-03-06T05:58:08.613Z,84.00
2018-03-06T05:59:08.664Z,96.00
2018-03-06T06:00:08.714Z,104.00
2018-03-06T06:01:08.769Z,120.00
2018-03-06T06:02:08.819Z,132.00
2018-03-06T06:03:08.871Z,144.00
2018-03-06T06:04:08.924Z,156.00
2018-03-06T06:05:08.976Z,172.00
2018-03-06T06:06:09.029Z,192.00
2018-03-06T06:07:09.082Z,208.00
2018-03-06T06:08:09.141Z,220.00
2018-03-06T06:09:09.184Z,240.00
2018-03-06T06:10:09.254Z,256.00
2018-03-06T06:11:09.289Z,272.00
2018-03-06T06:12:09.343Z,292.00
2018-03-06T06:13:09.399Z,312.00
2018-03-06T06:14:09.446Z,332.00
2018-03-06T06:15:09.520Z,360.00
2018-03-06T06:16:09.550Z,380.00
2018-03-06T06:17:09.604Z,408.00
2018-03-06T06:18:09.657Z,436.00
2018-03-06T06:19:09.710Z,460.00
2018-03-06T06:20:09.764Z,484.00
2018-03-06T06:21:09.812Z,508.00
2018-03-06T06:22:09.882Z,536.00
2018-03-06T06:23:10.245Z,564.00
2018-03-06T06:24:09.969Z,592.00
2018-03-06T06:25:10.023Z,628.00
2018-03-06T06:26:10.076Z,664.00
2018-03-06T06:27:10.130Z,708.00
2018-03-06T06:28:10.230Z,752.00
2018-03-06T06:29:10.232Z,808.00
2018-03-06T06:30:10.758Z,864.00
2018-03-06T06:31:10.710Z,920.00
2018-03-06T06:32:10.390Z,984.00
2018-03-06T06:33:10.442Z,1044.00
2018-03-06T06:34:10.838Z,1108.00
2018-03-06T06:35:10.549Z,1160.00
2018-03-06T06:36:10.602Z,1188.00
2018-03-06T06:37:10.652Z,1212.00
2018-03-06T06:38:10.704Z,1248.00
2018-03-06T06:39:10.763Z,1296.00
2018-03-06T06:40:10.809Z,1344.00
2018-03-06T06:41:10.862Z,1392.00
2018-03-06T06:42:10.934Z,1440.00
2018-03-06T06:43:10.967Z,1480.00
2018-03-06T06:44:11.022Z,1528.00
2018-03-06T06:45:11.075Z,1572.00
2018-03-06T06:46:11.126Z,1624.00
2018-03-06T06:47:11.179Z,1664.00
2018-03-06T06:48:11.229Z,1696.00
2018-03-06T06:49:11.282Z,1728.00
2018-03-06T06:50:11.337Z,1756.00
2018-03-06T06:51:11.390Z,1784.00
2018-03-06T06:52:11.440Z,1828.00
2018-03-06T06:53:11.493Z,1872.00
2018-03-06T06:54:11.549Z,1916.00
2018-03-06T06:55:11.598Z,1964.00
2018-03-06T06:56:11.653Z,2020.00
2018-03-06T06:57:11.706Z,2072.00
2018-03-06T06:58:11.758Z,2120.00
2018-03-06T06:59:11.810Z,2164.00
2018-03-06T07:00:11.865Z,2204.00
2018-03-06T07:01:11.916Z,2260.00
2018-03-06T07:02:11.968Z,2324.00
2018-03-06T07:03:12.021Z,2396.00
2018-03-06T07:04:12.072Z,2472.00
2018-03-06T07:05:12.124Z,2548.00
2018-03-06T07:06:12.179Z,2620.00
2018-03-06T07:07:12.232Z,2696.00
2018-03-06T07:08:12.283Z,2752.00
2018-03-06T07:09:12.339Z,2804.00
2018-03-06T07:10:12.388Z,2836.00
2018-03-06T07:11:12.444Z,2852.00
2018-03-06T07:12:12.494Z,2868.00
2018-03-06T07:13:12.592Z,2888.00
2018-03-06T07:14:12.601Z,2908.00
2018-03-06T07:15:12.653Z,2932.00
2018-03-06T07:16:12.709Z,2960.00
2018-03-06T07:17:12.760Z,2992.00
2018-03-06T07:18:12.811Z,3024.00
2018-03-06T07:19:12.882Z,3064.00
2018-03-06T07:20:12.916Z,3092.00
2018-03-06T07:21:13.036Z,3116.00
2018-03-06T07:22:13.023Z,3140.00
2018-03-06T07:23:13.077Z,3160.00
2018-03-06T07:24:13.139Z,3184.00
2018-03-06T07:25:13.546Z,3208.00
2018-03-06T07:26:13.235Z,3236.00
2018-03-06T07:27:13.295Z,3260.00
2018-03-06T07:28:13.342Z,3288.00
2018-03-06T07:29:13.392Z,3316.00
2018-03-06T07:30:13.447Z,3344.00
2018-03-06T07:31:13.500Z,3380.00
2018-03-06T07:32:13.559Z,3424.00
2018-03-06T07:33:13.606Z,3476.00
2018-03-06T07:34:13.659Z,3532.00
2018-03-06T07:35:13.712Z,3580.00
2018-03-06T07:36:13.768Z,3636.00
2018-03-06T07:37:14.067Z,3692.00
2018-03-06T07:38:13.870Z,3748.00
2018-03-06T07:39:13.925Z,3808.00
2018-03-06T07:40:13.976Z,3864.00
2018-03-06T07:41:14.029Z,3920.00
2018-03-06T07:42:14.083Z,3980.00
2018-03-06T07:43:14.135Z,4040.00
2018-03-06T07:44:14.191Z,4104.00
2018-03-06T07:45:14.243Z,4176.00
2018-03-06T07:46:14.296Z,4248.00
2018-03-06T07:47:15.071Z,4320.00
2018-03-06T07:48:14.402Z,4380.00
2018-03-06T07:49:14.458Z,4440.00
2018-03-06T07:50:14.510Z,4488.00
2018-03-06T07:51:14.564Z,4540.00
2018-03-06T07:52:14.615Z,4596.00
2018-03-06T07:53:14.669Z,4660.00
2018-03-06T07:54:14.723Z,4736.00
2018-03-06T07:55:14.777Z,4824.00
2018-03-06T07:56:14.831Z,4944.00
2018-03-06T07:57:14.940Z,5088.00
2018-03-06T07:58:14.937Z,5260.00
2018-03-06T07:59:15.000Z,5484.00
2018-03-06T08:00:15.377Z,5720.00
2018-03-06T08:01:15.098Z,5948.00
2018-03-06T08:02:15.151Z,6148.00
2018-03-06T08:03:15.245Z,6344.00
2018-03-06T08:04:15.259Z,6504.00
2018-03-06T08:05:15.312Z,6576.00
2018-03-06T08:06:15.367Z,6604.00
2018-03-06T08:07:15.421Z,6588.00
2018-03-06T08:08:15.475Z,6504.00
2018-03-06T08:09:15.527Z,6344.00
2018-03-06T08:10:15.581Z,6132.00
2018-03-06T08:11:15.635Z,5976.00
2018-03-06T08:12:15.689Z,5956.00
2018-03-06T08:13:15.743Z,6024.00
2018-03-06T08:14:15.798Z,6152.00
2018-03-06T08:15:15.852Z,6328.00
2018-03-06T08:16:15.910Z,6512.00
2018-03-06T08:17:15.959Z,6600.00
2018-03-06T08:18:16.015Z,6680.00
2018-03-06T08:19:16.069Z,6696.00
2018-03-06T08:20:16.127Z,6652.00
2018-03-06T08:21:16.176Z,6564.00
2018-03-06T08:22:16.231Z,6460.00
2018-03-06T08:23:16.286Z,6372.00
2018-03-06T08:24:16.339Z,6324.00
2018-03-06T08:25:16.398Z,6296.00
2018-03-06T08:26:16.449Z,6272.00
2018-03-06T08:27:16.503Z,6228.00
2018-03-06T08:28:17.081Z,6164.00
2018-03-06T08:29:17.002Z,6144.00
2018-03-06T08:30:16.669Z,6252.00
2018-03-06T08:31:16.721Z,6396.00
2018-03-06T08:32:16.775Z,6500.00
2018-03-06T08:33:16.832Z,6580.00
2018-03-06T08:34:43.011Z,6680.00
2018-03-06T08:35:16.940Z,6824.00
2018-03-06T08:36:16.993Z,6960.00
2018-03-06T08:37:17.049Z,7040.00
2018-03-06T08:38:17.104Z,7076.00
2018-03-06T08:39:17.159Z,7116.00
2018-03-06T08:40:17.214Z,7220.00
2018-03-06T08:41:17.271Z,7396.00
2018-03-06T08:42:17.322Z,7564.00
2018-03-06T08:43:17.414Z,7680.00
2018-03-06T08:44:17.431Z,7716.00
2018-03-06T08:45:22.333Z,7652.00
2018-03-06T08:46:17.577Z,7496.00
2018-03-06T08:47:17.599Z,7204.00
2018-03-06T08:48:17.651Z,6848.00
2018-03-06T08:49:17.707Z,6556.00
2018-03-06T08:50:17.764Z,6364.00
2018-03-06T08:51:17.817Z,6284.00
2018-03-06T08:52:17.869Z,6328.00
2018-03-06T08:53:17.940Z,6448.00
2018-03-06T08:54:17.980Z,6616.00
2018-03-06T08:55:18.058Z,6812.00
2018-03-06T08:56:18.090Z,7020.00
2018-03-06T08:57:18.158Z,7208.00
2018-03-06T08:58:18.201Z,7384.00
2018-03-06T08:59:18.255Z,7536.00
2018-03-06T09:00:19.048Z,7652.00
2018-03-06T09:01:18.363Z,7732.00
2018-03-06T09:02:18.420Z,7780.00
2018-03-06T09:03:18.473Z,7772.00
2018-03-06T09:04:18.529Z,7712.00
2018-03-06T09:05:18.583Z,7596.00
2018-03-06T09:06:18.639Z,7456.00
2018-03-06T09:07:18.693Z,7320.00
2018-03-06T09:08:18.760Z,7212.00
2018-03-06T09:09:18.803Z,7112.00
2018-03-06T09:10:18.857Z,7036.00
2018-03-06T09:11:18.915Z,6960.00
2018-03-06T09:12:18.966Z,6908.00
2018-03-06T09:13:19.022Z,6908.00
2018-03-06T09:14:19.078Z,6924.00
2018-03-06T09:15:19.132Z,6964.00
2018-03-06T09:16:19.187Z,7016.00
2018-03-06T09:17:19.244Z,7056.00
2018-03-06T09:18:19.296Z,7068.00
2018-03-06T09:19:20.164Z,7144.00
2018-03-06T09:20:19.429Z,7252.00
2018-03-06T09:21:19.790Z,7336.00
2018-03-06T09:22:19.520Z,7412.00
2018-03-06T09:23:19.572Z,7540.00
2018-03-06T09:24:19.632Z,7640.00
2018-03-06T09:25:19.682Z,7772.00
2018-03-06T09:26:19.737Z,7872.00
2018-03-06T09:27:19.795Z,7968.00
2018-03-06T09:28:20.193Z,8072.00
2018-03-06T09:29:19.907Z,8136.00
2018-03-06T09:30:20.302Z,8216.00
2018-03-06T09:31:20.013Z,8296.00
2018-03-06T09:32:20.068Z,8376.00
2018-03-06T09:33:20.123Z,8488.00
2018-03-06T09:34:20.179Z,8608.00
2018-03-06T09:35:20.239Z,8672.00
2018-03-06T09:36:20.375Z,8696.00
2018-03-06T09:37:20.346Z,8844.00
2018-03-06T09:38:20.433Z,8916.00
2018-03-06T09:39:20.460Z,9000.00
2018-03-06T09:40:20.541Z,9072.00
2018-03-06T09:41:20.569Z,9176.00
2018-03-06T09:42:20.623Z,9272.00
2018-03-06T09:43:20.679Z,9352.00
2018-03-06T09:44:20.735Z,9372.00
2018-03-06T09:45:20.792Z,9428.00
2018-03-06T09:46:20.847Z,9540.00
2018-03-06T09:47:21.496Z,9684.00
2018-03-06T09:48:20.963Z,9840.00
2018-03-06T09:49:21.015Z,10004.00
2018-03-06T09:50:21.103Z,10164.00
2018-03-06T09:51:21.129Z,10340.00
2018-03-06T09:52:21.209Z,10528.00
2018-03-06T09:53:21.239Z,10776.00
2018-03-06T09:54:21.308Z,10992.00
2018-03-06T09:55:21.352Z,11220.00
2018-03-06T09:56:21.411Z,11444.00
2018-03-06T09:57:21.943Z,11708.00
2018-03-06T09:58:21.522Z,11944.00
2018-03-06T09:59:21.592Z,12152.00
2018-03-06T10:00:21.662Z,12328.00
2018-03-06T10:01:22.138Z,12476.00
2018-03-06T10:02:21.748Z,12560.00
2018-03-06T10:03:22.472Z,12656.00
2018-03-06T10:04:21.863Z,12804.00
2018-03-06T10:05:22.116Z,12968.00
2018-03-06T10:06:21.977Z,13124.00
2018-03-06T10:07:22.034Z,13248.00
2018-03-06T10:08:22.090Z,13304.00
2018-03-06T10:09:22.150Z,13380.00
2018-03-06T10:10:22.204Z,13464.00
2018-03-06T10:11:22.262Z,13556.00
2018-03-06T10:12:22.319Z,13628.00
2018-03-06T10:13:22.490Z,13664.00
2018-03-06T10:14:22.433Z,13680.00
2018-03-06T10:15:22.490Z,13676.00
2018-03-06T10:16:22.607Z,13704.00
2018-03-06T10:17:22.605Z,13760.00
2018-03-06T10:18:22.663Z,13808.00
2018-03-06T10:19:22.721Z,13836.00
2018-03-06T10:20:22.777Z,13924.00
2018-03-06T10:21:23.303Z,14092.00
2018-03-06T10:22:22.893Z,14328.00
2018-03-06T10:23:22.957Z,14520.00
2018-03-06T10:24:23.012Z,14708.00
2018-03-06T10:25:23.066Z,14868.00
2018-03-06T10:26:23.768Z,15064.00
2018-03-06T10:27:23.186Z,15240.00
2018-03-06T10:28:23.241Z,15384.00
2018-03-06T10:29:23.298Z,15540.00
2018-03-06T10:30:23.356Z,15664.00
2018-03-06T10:31:23.415Z,15776.00
2018-03-06T10:32:23.472Z,15844.00
2018-03-06T10:33:24.157Z,15936.00
2018-03-06T10:34:24.412Z,16040.00
2018-03-06T10:35:24.447Z,16204.00
2018-03-06T10:36:24.679Z,16376.00
2018-03-06T10:37:24.160Z,16512.00
2018-03-06T10:38:24.393Z,16628.00
2018-03-06T10:39:24.494Z,16788.00
2018-03-06T10:40:27.861Z,16984.00
2018-03-06T10:41:24.915Z,17128.00
2018-03-06T10:42:24.751Z,17260.00
2018-03-06T10:43:24.824Z,17324.00
2018-03-06T10:44:24.177Z,17328.00
2018-03-06T10:45:24.232Z,17344.00
2018-03-06T10:46:25.118Z,17352.00
2018-03-06T10:47:25.542Z,17380.00
2018-03-06T10:48:25.516Z,17452.00
2018-03-06T10:49:25.231Z,17476.00
2018-03-06T10:50:25.115Z,17424.00
2018-03-06T10:51:24.592Z,17348.00
2018-03-06T10:52:25.170Z,17308.00
2018-03-06T10:53:25.251Z,17292.00
2018-03-06T10:54:25.276Z,17252.00
2018-03-06T10:55:24.819Z,17208.00
2018-03-06T10:56:24.877Z,17176.00
2018-03-06T10:57:25.388Z,17220.00
2018-03-06T10:58:25.037Z,17228.00
2018-03-06T10:59:25.485Z,17284.00
2018-03-06T11:00:25.129Z,17324.00
2018-03-06T11:01:25.171Z,17356.00
2018-03-06T11:02:25.556Z,17388.00
2018-03-06T11:03:25.290Z,17464.00
2018-03-06T11:04:25.366Z,17512.00
2018-03-06T11:05:25.967Z,17644.00
2018-03-06T11:06:26.099Z,17920.00
2018-03-06T11:07:25.527Z,18016.00
2018-03-06T11:08:25.582Z,18112.00
2018-03-06T11:09:25.661Z,18112.00
2018-03-06T11:10:25.701Z,18208.00
2018-03-06T11:11:25.763Z,18336.00
2018-03-06T11:12:25.821Z,18368.00
2018-03-06T11:13:25.879Z,18528.00
2018-03-06T11:14:25.953Z,18624.00
2018-03-06T11:15:25.999Z,18752.00
2018-03-06T11:16:26.056Z,18880.00
2018-03-06T11:17:26.116Z,19072.00
2018-03-06T11:18:26.204Z,20160.00
2018-03-06T11:19:27.072Z,22336.00
2018-03-06T11:20:26.883Z,25088.00
2018-03-06T11:21:27.044Z,24640.00
2018-03-06T11:22:27.098Z,26208.00
2018-03-06T11:23:26.474Z,25824.00
2018-03-06T11:24:26.684Z,25504.00
2018-03-06T11:25:26.597Z,25952.00
2018-03-06T11:26:26.653Z,25376.00
2018-03-06T11:27:26.713Z,24480.00
2018-03-06T11:28:26.774Z,22368.00
2018-03-06T11:29:26.837Z,24576.00
2018-03-06T11:30:26.895Z,24576.00
2018-03-06T11:31:26.956Z,24352.00
2018-03-06T11:32:27.015Z,23968.00
2018-03-06T11:33:27.077Z,22976.00
2018-03-06T11:34:27.136Z,23616.00
2018-03-06T11:35:27.215Z,23648.00
2018-03-06T11:36:27.259Z,23552.00
2018-03-06T11:37:27.320Z,23680.00
2018-03-06T11:38:27.384Z,23776.00
2018-03-06T11:39:27.442Z,24032.00
2018-03-06T11:40:28.053Z,24064.00
2018-03-06T11:41:27.570Z,23296.00
2018-03-06T11:42:28.170Z,23136.00
2018-03-06T11:43:28.483Z,22848.00
2018-03-06T11:44:27.753Z,22496.00
2018-03-06T11:45:27.810Z,22400.00
2018-03-06T11:46:27.872Z,22272.00
2018-03-06T11:47:27.936Z,22720.00
2018-03-06T11:48:27.996Z,22688.00
2018-03-06T11:49:28.057Z,22912.00
2018-03-06T11:50:28.118Z,23360.00
2018-03-06T11:51:28.180Z,23648.00
2018-03-06T11:52:28.942Z,23680.00
2018-03-06T11:53:28.304Z,23808.00
2018-03-06T11:54:28.366Z,24000.00
2018-03-06T11:55:28.429Z,24160.00
2018-03-06T11:56:28.488Z,24224.00
2018-03-06T11:57:28.551Z,24384.00
2018-03-06T11:58:28.865Z,24704.00
2018-03-06T11:59:28.678Z,24800.00
2018-03-06T12:00:28.737Z,25280.00
2018-03-06T12:01:28.799Z,25312.00
2018-03-06T12:02:28.866Z,25088.00
2018-03-06T12:03:28.925Z,24832.00
2018-03-06T12:04:28.987Z,24032.00
2018-03-06T12:05:29.049Z,23904.00
2018-03-06T12:06:29.111Z,23936.00
2018-03-06T12:07:29.175Z,23072.00
2018-03-06T12:08:29.376Z,23200.00
2018-03-06T12:09:29.300Z,26176.00
2018-03-06T12:10:29.363Z,25952.00
2018-03-06T12:11:29.424Z,27200.00
2018-03-06T12:12:29.485Z,26688.00
2018-03-06T12:13:29.549Z,28928.00
2018-03-06T12:14:29.612Z,28448.00
2018-03-06T12:15:29.674Z,28960.00
2018-03-06T12:16:29.736Z,30304.00
2018-03-06T12:17:29.799Z,28928.00
2018-03-06T12:18:29.865Z,28736.00
2018-03-06T12:19:29.925Z,28192.00
2018-03-06T12:20:30.236Z,28288.00
2018-03-06T12:21:30.061Z,26560.00
2018-03-06T12:22:30.110Z,25568.00
2018-03-06T12:23:30.174Z,24064.00
2018-03-06T12:24:30.236Z,25408.00
2018-03-06T12:25:30.298Z,26400.00
2018-03-06T12:26:30.361Z,26784.00
2018-03-06T12:27:30.424Z,27040.00
2018-03-06T12:28:30.485Z,28032.00
2018-03-06T12:29:30.549Z,28768.00
2018-03-06T12:30:30.610Z,29152.00
2018-03-06T12:31:30.673Z,27712.00
2018-03-06T12:32:30.885Z,28640.00
2018-03-06T12:33:30.797Z,27520.00
2018-03-06T12:34:30.860Z,28800.00